createdAt,value
2022-11-06T00:00:56.079Z,0.00
2022-11-06T00:01:56.169Z,0.00
2022-11-06T00:02:56.151Z,0.00
2022-11-06T00:03:56.077Z,0.00
2022-11-06T00:04:56.073Z,0.00
2022-11-06T00:05:56.070Z,0.00
2022-11-06T00:06:56.067Z,0.00
2022-11-06T00:07:56.067Z,0.00
2022-11-06T00:08:56.073Z,0.00
2022-11-06T00:09:56.057Z,0.00
2022-11-06T00:10:56.057Z,0.00
2022-11-06T00:11:56.052Z,0.00
2022-11-06T00:12:56.046Z,0.00
2022-11-06T00:13:56.073Z,0.00
2022-11-06T00:14:56.042Z,0.00
2022-11-06T00:15:56.038Z,0.00
2022-11-06T00:16:56.046Z,0.00
2022-11-06T00:17:56.032Z,0.00
2022-11-06T00:18:56.035Z,0.00
2022-11-06T00:19:56.028Z,0.00
2022-11-06T00:20:56.032Z,0.00
2022-11-06T00:21:56.026Z,0.00
2022-11-06T00:22:56.025Z,0.00
2022-11-06T00:23:56.073Z,0.00
2022-11-06T00:24:56.020Z,0.00
2022-11-06T00:25:56.016Z,0.00
2022-11-06T00:26:56.011Z,0.00
2022-11-06T00:27:56.013Z,0.00
2022-11-06T00:28:56.006Z,0.00
2022-11-06T00:29:56.026Z,0.00
2022-11-06T00:30:56.001Z,0.00
2022-11-06T00:31:55.997Z,0.00
2022-11-06T00:32:55.995Z,0.00
2022-11-06T00:33:55.998Z,0.00
2022-11-06T00:34:55.994Z,0.00
2022-11-06T00:35:55.994Z,0.00
2022-11-06T00:36:55.987Z,0.00
2022-11-06T00:37:55.989Z,0.00
2022-11-06T00:38:55.979Z,0.00
2022-11-06T00:39:55.983Z,0.00
2022-11-06T00:40:55.978Z,0.00
2022-11-06T00:41:55.978Z,0.00
2022-11-06T00:42:55.971Z,0.00
2022-11-06T00:43:55.971Z,0.00
2022-11-06T00:44:55.961Z,0.00
2022-11-06T00:45:55.989Z,0.00
2022-11-06T00:46:55.960Z,0.00
2022-11-06T00:47:55.963Z,0.00
2022-11-06T00:48:55.960Z,0.00
2022-11-06T00:49:55.955Z,0.00
2022-11-06T00:50:55.951Z,0.00
2022-11-06T00:51:55.947Z,0.00
2022-11-06T00:52:55.948Z,0.00
2022-11-06T00:53:55.945Z,0.00
2022-11-06T00:54:55.941Z,0.00
2022-11-06T00:55:55.940Z,0.00
2022-11-06T00:56:55.942Z,0.00
2022-11-06T00:57:55.930Z,0.00
2022-11-06T00:58:55.927Z,0.00
2022-11-06T00:59:55.929Z,0.00
2022-11-06T01:00:55.923Z,0.00
2022-11-06T01:01:56.121Z,0.00
2022-11-06T01:02:56.060Z,0.00
2022-11-06T01:03:55.925Z,0.00
2022-11-06T01:04:55.911Z,0.00
2022-11-06T01:05:55.909Z,0.00
2022-11-06T01:06:55.908Z,0.00
2022-11-06T01:07:55.905Z,0.00
2022-11-06T01:08:55.902Z,0.00
2022-11-06T01:09:55.900Z,0.00
2022-11-06T01:10:55.896Z,0.00
2022-11-06T01:12:13.228Z,0.00
2022-11-06T01:12:55.893Z,0.00
2022-11-06T01:13:55.890Z,0.00
2022-11-06T01:14:55.889Z,0.00
2022-11-06T01:15:55.883Z,0.00
2022-11-06T01:16:55.883Z,0.00
2022-11-06T01:17:55.902Z,0.00
2022-11-06T01:18:55.872Z,0.00
2022-11-06T01:19:55.876Z,0.00
2022-11-06T01:20:55.876Z,0.00
2022-11-06T01:21:55.869Z,0.00
2022-11-06T01:22:55.864Z,0.00
2022-11-06T01:23:55.865Z,0.00
2022-11-06T01:24:55.889Z,0.00
2022-11-06T01:25:55.856Z,0.00
2022-11-06T01:27:24.897Z,0.00
2022-11-06T01:27:55.857Z,0.00
2022-11-06T01:28:55.853Z,0.00
2022-11-06T01:29:55.844Z,0.00
2022-11-06T01:30:55.840Z,0.00
2022-11-06T01:31:55.842Z,0.00
2022-11-06T01:32:55.850Z,0.00
2022-11-06T01:33:55.856Z,0.00
2022-11-06T01:34:55.838Z,0.00
2022-11-06T01:35:55.833Z,0.00
2022-11-06T01:36:55.827Z,0.00
2022-11-06T01:37:55.827Z,0.00
2022-11-06T01:38:55.822Z,0.00
2022-11-06T01:39:55.821Z,0.00
2022-11-06T01:40:55.825Z,0.00
2022-11-06T01:41:55.815Z,0.00
2022-11-06T01:42:55.814Z,0.00
2022-11-06T01:43:55.811Z,0.00
2022-11-06T01:44:55.810Z,0.00
2022-11-06T01:45:55.806Z,0.00
2022-11-06T01:46:55.805Z,0.00
2022-11-06T01:47:55.798Z,0.00
2022-11-06T01:48:55.797Z,0.00
2022-11-06T01:49:55.823Z,0.00
2022-11-06T01:50:55.793Z,0.00
2022-11-06T01:51:55.793Z,0.00
2022-11-06T01:52:55.791Z,0.00
2022-11-06T01:53:55.784Z,0.00
2022-11-06T01:54:55.786Z,0.00
2022-11-06T01:55:55.779Z,0.00
2022-11-06T01:56:55.774Z,0.00
2022-11-06T01:57:55.772Z,0.00
2022-11-06T01:58:55.769Z,0.00
2022-11-06T01:59:55.767Z,0.00
2022-11-06T02:00:55.777Z,0.00
2022-11-06T02:01:55.922Z,0.00
2022-11-06T02:02:55.943Z,0.00
2022-11-06T02:03:55.760Z,0.00
2022-11-06T02:04:55.754Z,0.00
2022-11-06T02:05:55.776Z,0.00
2022-11-06T02:06:55.749Z,0.00
2022-11-06T02:07:55.750Z,0.00
2022-11-06T02:08:55.745Z,0.00
2022-11-06T02:09:55.740Z,0.00
2022-11-06T02:10:55.741Z,0.00
2022-11-06T02:11:55.740Z,0.00
2022-11-06T02:12:55.732Z,0.00
2022-11-06T02:13:55.729Z,0.00
2022-11-06T02:14:55.734Z,0.00
2022-11-06T02:15:55.725Z,0.00
2022-11-06T02:16:55.729Z,0.00
2022-11-06T02:17:55.723Z,0.00
2022-11-06T02:18:55.716Z,0.00
2022-11-06T02:19:55.718Z,0.00
2022-11-06T02:20:55.710Z,0.00
2022-11-06T02:21:55.731Z,0.00
2022-11-06T02:22:55.705Z,0.00
2022-11-06T02:23:55.755Z,0.00
2022-11-06T02:24:55.703Z,0.00
2022-11-06T02:25:55.701Z,0.00
2022-11-06T02:26:55.710Z,0.00
2022-11-06T02:27:55.692Z,0.00
2022-11-06T02:28:55.694Z,0.00
2022-11-06T02:29:55.696Z,0.00
2022-11-06T02:30:55.689Z,0.00
2022-11-06T02:31:55.693Z,0.00
2022-11-06T02:32:55.688Z,0.00
2022-11-06T02:33:55.677Z,0.00
2022-11-06T02:34:55.678Z,0.00
2022-11-06T02:35:55.674Z,0.00
2022-11-06T02:36:55.671Z,0.00
2022-11-06T02:37:55.691Z,0.00
2022-11-06T02:38:55.665Z,0.00
2022-11-06T02:39:55.661Z,0.00
2022-11-06T02:40:55.661Z,0.00
2022-11-06T02:41:55.657Z,0.00
2022-11-06T02:42:55.654Z,0.00
2022-11-06T02:43:55.651Z,0.00
2022-11-06T02:44:55.650Z,0.00
2022-11-06T02:45:55.642Z,0.00
2022-11-06T02:46:55.643Z,0.00
2022-11-06T02:47:55.637Z,0.00
2022-11-06T02:48:55.636Z,0.00
2022-11-06T02:49:55.635Z,0.00
2022-11-06T02:50:55.634Z,0.00
2022-11-06T02:51:55.641Z,0.00
2022-11-06T02:52:55.627Z,0.00
2022-11-06T02:53:55.657Z,0.00
2022-11-06T02:54:55.623Z,0.00
2022-11-06T02:55:55.622Z,0.00
2022-11-06T02:56:55.614Z,0.00
2022-11-06T02:57:55.616Z,0.00
2022-11-06T02:58:55.615Z,0.00
2022-11-06T02:59:55.612Z,0.00
2022-11-06T03:00:55.606Z,0.00
2022-11-06T03:01:55.760Z,0.00
2022-11-06T03:02:55.760Z,0.00
2022-11-06T03:03:55.603Z,0.00
2022-11-06T03:04:55.598Z,0.00
2022-11-06T03:05:55.591Z,0.00
2022-11-06T03:06:55.595Z,0.00
2022-11-06T03:07:55.593Z,0.00
2022-11-06T03:08:55.583Z,0.00
2022-11-06T03:09:55.609Z,0.00
2022-11-06T03:10:55.579Z,0.00
2022-11-06T03:11:55.580Z,0.00
2022-11-06T03:12:55.576Z,0.00
2022-11-06T03:13:55.575Z,0.00
2022-11-06T03:14:55.570Z,0.00
2022-11-06T03:15:55.568Z,0.00
2022-11-06T03:16:55.563Z,0.00
2022-11-06T03:17:55.566Z,0.00
2022-11-06T03:18:55.560Z,0.00
2022-11-06T03:19:55.558Z,0.00
2022-11-06T03:20:55.557Z,0.00
2022-11-06T03:21:55.549Z,0.00
2022-11-06T03:22:55.545Z,0.00
2022-11-06T03:23:55.598Z,0.00
2022-11-06T03:24:55.544Z,0.00
2022-11-06T03:25:55.563Z,0.00
2022-11-06T03:26:55.537Z,0.00
2022-11-06T03:27:55.542Z,0.00
2022-11-06T03:28:55.533Z,0.00
2022-11-06T03:29:55.535Z,0.00
2022-11-06T03:30:55.530Z,0.00
2022-11-06T03:31:55.529Z,0.00
2022-11-06T03:32:55.529Z,0.00
2022-11-06T03:33:55.524Z,0.00
2022-11-06T03:34:55.523Z,0.00
2022-11-06T03:35:55.518Z,0.00
2022-11-06T03:36:55.521Z,0.00
2022-11-06T03:37:55.514Z,0.00
2022-11-06T03:38:55.514Z,0.00
2022-11-06T03:39:55.511Z,0.00
2022-11-06T03:40:55.503Z,0.00
2022-11-06T03:41:55.620Z,0.00
2022-11-06T03:42:55.506Z,0.00
2022-11-06T03:43:55.502Z,0.00
2022-11-06T03:44:55.495Z,0.00
2022-11-06T03:45:55.492Z,0.00
2022-11-06T03:46:55.487Z,0.00
2022-11-06T03:47:55.481Z,0.00
2022-11-06T03:48:55.486Z,0.00
2022-11-06T03:49:55.481Z,0.00
2022-11-06T03:50:55.480Z,0.00
2022-11-06T03:51:55.479Z,0.00
2022-11-06T03:52:55.481Z,0.00
2022-11-06T03:53:55.479Z,0.00
2022-11-06T03:54:55.471Z,0.00
2022-11-06T03:55:55.465Z,0.00
2022-11-06T03:56:55.465Z,0.00
2022-11-06T03:57:55.485Z,0.00
2022-11-06T03:58:55.553Z,0.00
2022-11-06T03:59:55.458Z,0.00
2022-11-06T04:00:55.457Z,0.00
2022-11-06T04:01:55.625Z,0.00
2022-11-06T04:02:55.697Z,0.00
2022-11-06T04:03:55.454Z,0.00
2022-11-06T04:04:55.442Z,0.00
2022-11-06T04:05:55.443Z,0.00
2022-11-06T04:06:55.436Z,0.00
2022-11-06T04:07:55.439Z,0.00
2022-11-06T04:08:55.441Z,0.00
2022-11-06T04:09:55.430Z,0.00
2022-11-06T04:10:55.427Z,0.00
2022-11-06T04:11:55.426Z,0.00
2022-11-06T04:12:55.422Z,0.00
2022-11-06T04:13:55.438Z,0.00
2022-11-06T04:14:55.415Z,0.00
2022-11-06T04:15:55.418Z,0.00
2022-11-06T04:16:55.412Z,0.00
2022-11-06T04:17:55.410Z,0.00
2022-11-06T04:18:55.407Z,0.00
2022-11-06T04:19:55.407Z,0.00
2022-11-06T04:20:55.403Z,0.00
2022-11-06T04:21:55.402Z,0.00
2022-11-06T04:22:55.395Z,0.00
2022-11-06T04:23:55.455Z,0.00
2022-11-06T04:24:55.387Z,0.00
2022-11-06T04:25:55.389Z,0.00
2022-11-06T04:26:55.382Z,0.00
2022-11-06T04:27:55.383Z,0.00
2022-11-06T04:28:55.383Z,0.00
2022-11-06T04:29:55.395Z,0.00
2022-11-06T04:30:55.370Z,0.00
2022-11-06T04:31:55.373Z,0.00
2022-11-06T04:32:59.788Z,0.00
2022-11-06T04:33:55.373Z,0.00
2022-11-06T04:34:55.365Z,0.00
2022-11-06T04:35:55.361Z,0.00
2022-11-06T04:36:55.358Z,0.00
2022-11-06T04:37:55.351Z,0.00
2022-11-06T04:38:55.353Z,0.00
2022-11-06T04:39:55.351Z,0.00
2022-11-06T04:40:55.348Z,0.00
2022-11-06T04:41:55.345Z,0.00
2022-11-06T04:42:55.340Z,0.00
2022-11-06T04:43:55.333Z,0.00
2022-11-06T04:44:55.334Z,0.00
2022-11-06T04:45:55.351Z,0.00
2022-11-06T04:46:55.332Z,0.00
2022-11-06T04:47:55.320Z,0.00
2022-11-06T04:48:55.326Z,0.00
2022-11-06T04:49:55.323Z,0.00
2022-11-06T04:50:55.318Z,0.00
2022-11-06T04:51:55.315Z,0.00
2022-11-06T04:52:55.316Z,0.00
2022-11-06T04:53:55.306Z,0.00
2022-11-06T04:54:55.306Z,0.00
2022-11-06T04:55:55.310Z,0.00
2022-11-06T04:56:55.301Z,0.00
2022-11-06T04:57:55.296Z,0.00
2022-11-06T04:58:55.296Z,0.00
2022-11-06T04:59:55.292Z,0.00
2022-11-06T05:00:55.364Z,0.00
2022-11-06T05:01:55.467Z,0.00
2022-11-06T05:02:55.283Z,0.00
2022-11-06T05:03:55.281Z,0.00
2022-11-06T05:04:55.281Z,0.00
2022-11-06T05:05:55.273Z,0.00
2022-11-06T05:06:55.270Z,0.00
2022-11-06T05:07:55.269Z,0.00
2022-11-06T05:08:55.268Z,0.00
2022-11-06T05:09:55.271Z,0.00
2022-11-06T05:10:55.262Z,0.00
2022-11-06T05:11:55.260Z,0.00
2022-11-06T05:12:55.262Z,0.00
2022-11-06T05:13:55.251Z,0.00
2022-11-06T05:14:55.251Z,0.00
2022-11-06T05:15:55.247Z,0.00
2022-11-06T05:16:55.245Z,0.00
2022-11-06T05:17:55.256Z,0.00
2022-11-06T05:18:55.239Z,0.00
2022-11-06T05:19:55.230Z,0.00
2022-11-06T05:20:55.232Z,0.00
2022-11-06T05:21:55.227Z,0.00
2022-11-06T05:22:55.223Z,0.00
2022-11-06T05:23:55.273Z,0.00
2022-11-06T05:24:55.222Z,0.00
2022-11-06T05:25:55.216Z,0.00
2022-11-06T05:26:59.326Z,0.00
2022-11-06T05:27:55.209Z,0.00
2022-11-06T05:28:55.207Z,0.00
2022-11-06T05:29:55.201Z,0.00
2022-11-06T05:30:55.199Z,0.00
2022-11-06T05:31:55.191Z,0.00
2022-11-06T05:32:55.192Z,0.00
2022-11-06T05:33:55.206Z,0.00
2022-11-06T05:34:55.189Z,0.00
2022-11-06T05:35:55.189Z,0.00
2022-11-06T05:36:55.187Z,0.00
2022-11-06T05:37:55.181Z,0.00
2022-11-06T05:38:55.178Z,0.00
2022-11-06T05:39:55.174Z,0.00
2022-11-06T05:40:55.172Z,0.00
2022-11-06T05:41:55.166Z,0.00
2022-11-06T05:42:55.165Z,0.00
2022-11-06T05:43:55.158Z,0.00
2022-11-06T05:44:55.160Z,0.00
2022-11-06T05:45:55.159Z,0.00
2022-11-06T05:46:55.151Z,0.00
2022-11-06T05:47:55.153Z,0.00
2022-11-06T05:48:55.161Z,0.00
2022-11-06T05:49:55.162Z,0.00
2022-11-06T05:50:55.139Z,0.00
2022-11-06T05:51:55.156Z,0.00
2022-11-06T05:52:55.140Z,0.00
2022-11-06T05:53:55.155Z,0.00
2022-11-06T05:54:55.155Z,0.00
2022-11-06T05:55:55.126Z,0.00
2022-11-06T05:56:55.126Z,0.00
2022-11-06T05:57:55.138Z,0.00
2022-11-06T05:58:55.122Z,0.00
2022-11-06T05:59:55.138Z,0.00
2022-11-06T06:00:55.119Z,0.00
2022-11-06T06:01:55.232Z,0.00
2022-11-06T06:02:55.146Z,0.00
2022-11-06T06:03:55.101Z,0.00
2022-11-06T06:04:55.097Z,5.63
2022-11-06T06:05:55.116Z,5.63
2022-11-06T06:06:55.091Z,5.63
2022-11-06T06:07:55.086Z,5.63
2022-11-06T06:08:55.086Z,5.63
2022-11-06T06:09:55.083Z,5.63
2022-11-06T06:10:55.077Z,5.63
2022-11-06T06:11:55.076Z,5.63
2022-11-06T06:12:55.077Z,11.25
2022-11-06T06:13:55.070Z,11.25
2022-11-06T06:14:55.066Z,11.25
2022-11-06T06:15:55.060Z,11.25
2022-11-06T06:16:55.063Z,11.25
2022-11-06T06:17:55.059Z,16.88
2022-11-06T06:18:55.055Z,16.88
2022-11-06T06:19:55.052Z,16.88
2022-11-06T06:20:55.052Z,16.88
2022-11-06T06:21:55.063Z,22.50
2022-11-06T06:22:55.039Z,22.50
2022-11-06T06:23:55.048Z,22.50
2022-11-06T06:24:55.139Z,22.50
2022-11-06T06:25:55.034Z,28.13
2022-11-06T06:26:55.037Z,28.13
2022-11-06T06:27:55.028Z,28.13
2022-11-06T06:28:55.031Z,33.75
2022-11-06T06:29:55.022Z,33.75
2022-11-06T06:31:00.989Z,33.75
2022-11-06T06:31:55.015Z,33.75
2022-11-06T06:32:55.016Z,39.38
2022-11-06T06:33:55.013Z,39.38
2022-11-06T06:34:55.012Z,39.38
2022-11-06T06:35:54.999Z,45.00
2022-11-06T06:36:55.000Z,45.00
2022-11-06T06:37:55.022Z,45.00
2022-11-06T06:38:54.994Z,45.00
2022-11-06T06:39:54.994Z,50.63
2022-11-06T06:40:54.993Z,50.63
2022-11-06T06:41:54.984Z,50.63
2022-11-06T06:42:54.987Z,50.63
2022-11-06T06:43:54.986Z,56.25
2022-11-06T06:44:54.979Z,56.25
2022-11-06T06:45:54.975Z,56.25
2022-11-06T06:46:54.972Z,56.25
2022-11-06T06:47:54.974Z,61.88
2022-11-06T06:48:54.967Z,61.88
2022-11-06T06:49:54.960Z,61.88
2022-11-06T06:50:54.965Z,61.88
2022-11-06T06:51:54.965Z,67.50
2022-11-06T06:52:54.954Z,67.50
2022-11-06T06:53:54.977Z,67.50
2022-11-06T06:54:54.950Z,73.13
2022-11-06T06:55:54.944Z,73.13
2022-11-06T06:56:54.945Z,73.13
2022-11-06T06:57:54.937Z,78.75
2022-11-06T06:58:54.942Z,78.75
2022-11-06T06:59:54.933Z,78.75
2022-11-06T07:00:54.971Z,84.38
2022-11-06T07:01:55.095Z,84.38
2022-11-06T07:02:54.933Z,84.38
2022-11-06T07:03:57.603Z,90.00
2022-11-06T07:04:54.918Z,90.00
2022-11-06T07:05:54.916Z,90.00
2022-11-06T07:06:54.908Z,95.63
2022-11-06T07:07:54.910Z,95.63
2022-11-06T07:08:54.908Z,95.63
2022-11-06T07:09:54.933Z,101.25
2022-11-06T07:10:54.903Z,101.25
2022-11-06T07:11:54.896Z,106.88
2022-11-06T07:12:54.893Z,106.88
2022-11-06T07:13:54.894Z,106.88
2022-11-06T07:14:54.889Z,112.50
2022-11-06T07:15:54.887Z,112.50
2022-11-06T07:16:54.882Z,112.50
2022-11-06T07:17:54.881Z,112.50
2022-11-06T07:18:54.876Z,118.13
2022-11-06T07:19:54.877Z,118.13
2022-11-06T07:20:54.870Z,123.75
2022-11-06T07:21:54.867Z,129.38
2022-11-06T07:22:54.869Z,129.38
2022-11-06T07:23:54.861Z,129.38
2022-11-06T07:24:54.860Z,129.38
2022-11-06T07:25:54.884Z,129.38
2022-11-06T07:26:54.858Z,129.38
2022-11-06T07:27:59.164Z,135.00
2022-11-06T07:28:54.902Z,135.00
2022-11-06T07:29:54.843Z,140.63
2022-11-06T07:30:54.852Z,140.63
2022-11-06T07:31:54.839Z,140.63
2022-11-06T07:32:54.844Z,140.63
2022-11-06T07:33:54.835Z,146.25
2022-11-06T07:34:54.834Z,146.25
2022-11-06T07:35:54.830Z,146.25
2022-11-06T07:36:54.830Z,151.88
2022-11-06T07:37:54.824Z,151.88
2022-11-06T07:38:54.828Z,151.88
2022-11-06T07:39:54.824Z,157.50
2022-11-06T07:40:54.817Z,157.50
2022-11-06T07:41:54.837Z,157.50
2022-11-06T07:42:54.817Z,174.38
2022-11-06T07:43:54.812Z,219.38
2022-11-06T07:44:54.810Z,230.63
2022-11-06T07:45:54.805Z,202.50
2022-11-06T07:46:54.803Z,180.00
2022-11-06T07:47:58.974Z,174.38
2022-11-06T07:48:54.798Z,174.38
2022-11-06T07:49:54.794Z,180.00
2022-11-06T07:50:54.794Z,180.00
2022-11-06T07:51:54.792Z,180.00
2022-11-06T07:52:54.793Z,185.63
2022-11-06T07:53:54.784Z,185.63
2022-11-06T07:54:54.783Z,191.25
2022-11-06T07:55:54.783Z,191.25
2022-11-06T07:56:54.780Z,191.25
2022-11-06T07:57:54.798Z,196.88
2022-11-06T07:58:54.778Z,196.88
2022-11-06T07:59:54.772Z,196.88
2022-11-06T08:00:54.844Z,196.88
2022-11-06T08:01:54.982Z,196.88
2022-11-06T08:02:54.764Z,196.88
2022-11-06T08:03:54.759Z,202.50
2022-11-06T08:04:54.765Z,202.50
2022-11-06T08:05:54.761Z,202.50
2022-11-06T08:06:54.760Z,202.50
2022-11-06T08:07:54.755Z,208.13
2022-11-06T08:08:58.724Z,208.13
2022-11-06T08:09:54.752Z,208.13
2022-11-06T08:10:54.746Z,208.13
2022-11-06T08:11:54.745Z,213.75
2022-11-06T08:12:54.750Z,219.38
2022-11-06T08:13:54.843Z,219.38
2022-11-06T08:14:54.742Z,225.00
2022-11-06T08:15:54.735Z,230.63
2022-11-06T08:16:54.734Z,230.63
2022-11-06T08:17:54.736Z,230.63
2022-11-06T08:18:54.732Z,236.25
2022-11-06T08:19:54.728Z,236.25
2022-11-06T08:20:54.729Z,241.88
2022-11-06T08:21:54.727Z,241.88
2022-11-06T08:22:54.728Z,247.50
2022-11-06T08:23:54.722Z,247.50
2022-11-06T08:24:54.719Z,247.50
2022-11-06T08:25:54.717Z,253.13
2022-11-06T08:26:54.720Z,253.13
2022-11-06T08:27:54.715Z,258.75
2022-11-06T08:28:54.768Z,258.75
2022-11-06T08:29:54.738Z,264.38
2022-11-06T08:30:54.709Z,270.00
2022-11-06T08:31:54.708Z,270.00
2022-11-06T08:32:54.709Z,275.63
2022-11-06T08:33:54.708Z,275.63
2022-11-06T08:34:54.702Z,281.25
2022-11-06T08:35:54.697Z,286.88
2022-11-06T08:36:54.700Z,286.88
2022-11-06T08:37:54.697Z,286.88
2022-11-06T08:38:54.702Z,286.88
2022-11-06T08:39:54.699Z,286.88
2022-11-06T08:40:54.696Z,286.88
2022-11-06T08:41:54.691Z,286.88
2022-11-06T08:42:54.689Z,286.88
2022-11-06T08:43:54.691Z,286.88
2022-11-06T08:44:54.700Z,292.50
2022-11-06T08:45:54.714Z,298.13
2022-11-06T08:46:54.686Z,303.75
2022-11-06T08:47:54.688Z,303.75
2022-11-06T08:48:54.679Z,309.38
2022-11-06T08:49:54.682Z,309.38
2022-11-06T08:50:54.677Z,309.38
2022-11-06T08:51:54.681Z,315.00
2022-11-06T08:52:54.676Z,315.00
2022-11-06T08:53:54.796Z,320.63
2022-11-06T08:54:54.673Z,320.63
2022-11-06T08:55:54.671Z,326.25
2022-11-06T08:56:54.671Z,331.88
2022-11-06T08:57:54.669Z,337.50
2022-11-06T08:58:55.885Z,348.75
2022-11-06T08:59:54.664Z,348.75
2022-11-06T09:00:54.732Z,360.00
2022-11-06T09:01:54.825Z,365.63
2022-11-06T09:02:54.664Z,371.25
2022-11-06T09:03:54.664Z,376.88
2022-11-06T09:04:54.666Z,376.88
2022-11-06T09:05:54.665Z,382.50
2022-11-06T09:06:54.658Z,382.50
2022-11-06T09:07:54.660Z,388.13
2022-11-06T09:08:54.654Z,393.75
2022-11-06T09:09:54.659Z,399.38
2022-11-06T09:10:58.584Z,399.38
2022-11-06T09:11:54.661Z,405.00
2022-11-06T09:12:54.648Z,410.63
2022-11-06T09:13:54.650Z,410.63
2022-11-06T09:14:54.651Z,416.25
2022-11-06T09:15:54.655Z,421.88
2022-11-06T09:16:54.650Z,427.50
2022-11-06T09:17:54.704Z,427.50
2022-11-06T09:18:54.647Z,438.75
2022-11-06T09:19:54.645Z,438.75
2022-11-06T09:20:54.648Z,444.38
2022-11-06T09:21:55.088Z,450.00
2022-11-06T09:22:54.650Z,455.63
2022-11-06T09:23:54.657Z,472.50
2022-11-06T09:25:03.679Z,461.25
2022-11-06T09:25:54.642Z,466.88
2022-11-06T09:26:54.646Z,478.13
2022-11-06T09:27:59.220Z,483.75
2022-11-06T09:28:54.635Z,483.75
2022-11-06T09:29:54.639Z,489.38
2022-11-06T09:30:54.635Z,495.00
2022-11-06T09:31:54.637Z,511.88
2022-11-06T09:32:54.637Z,523.13
2022-11-06T09:33:54.658Z,523.13
2022-11-06T09:34:54.640Z,540.00
2022-11-06T09:35:54.635Z,551.25
2022-11-06T09:36:54.637Z,562.50
2022-11-06T09:37:54.646Z,573.75
2022-11-06T09:38:54.632Z,590.63
2022-11-06T09:39:54.633Z,607.50
2022-11-06T09:40:54.635Z,630.00
2022-11-06T09:41:54.633Z,528.75
2022-11-06T09:42:54.633Z,635.63
2022-11-06T09:44:09.987Z,691.88
2022-11-06T09:44:54.636Z,725.63
2022-11-06T09:45:55.084Z,624.38
2022-11-06T09:46:54.633Z,781.88
2022-11-06T09:47:54.632Z,663.75
2022-11-06T09:48:54.631Z,753.75
2022-11-06T09:49:54.662Z,905.63
2022-11-06T09:50:54.631Z,894.38
2022-11-06T09:51:54.633Z,883.13
2022-11-06T09:52:54.633Z,916.88
2022-11-06T09:53:54.627Z,1046.25
2022-11-06T09:54:57.478Z,1130.63
2022-11-06T09:55:54.633Z,1237.50
2022-11-06T09:56:54.633Z,1327.50
2022-11-06T09:57:54.634Z,1406.25
2022-11-06T09:58:54.638Z,1344.38
2022-11-06T09:59:54.628Z,1198.13
2022-11-06T10:00:54.907Z,793.13
2022-11-06T10:01:54.820Z,1378.13
2022-11-06T10:02:54.798Z,1440.00
2022-11-06T10:03:54.633Z,1102.50
2022-11-06T10:04:54.633Z,663.75
2022-11-06T10:05:54.661Z,911.25
2022-11-06T10:06:54.632Z,810.00
2022-11-06T10:07:54.630Z,691.88
2022-11-06T10:08:54.647Z,810.00
2022-11-06T10:09:54.635Z,810.00
2022-11-06T10:10:54.630Z,748.13
2022-11-06T10:11:54.633Z,725.63
2022-11-06T10:12:54.636Z,928.13
2022-11-06T10:13:54.636Z,804.38
2022-11-06T10:14:54.632Z,905.63
2022-11-06T10:15:54.634Z,736.88
2022-11-06T10:16:54.637Z,686.25
2022-11-06T10:17:54.633Z,838.13
2022-11-06T10:18:54.634Z,843.75
2022-11-06T10:19:54.631Z,1035.00
2022-11-06T10:20:54.635Z,1653.75
2022-11-06T10:21:54.650Z,1963.13
2022-11-06T10:22:54.634Z,1648.13
2022-11-06T10:23:54.640Z,1046.25
2022-11-06T10:24:54.646Z,821.25
2022-11-06T10:25:54.639Z,810.00
2022-11-06T10:26:54.640Z,826.88
2022-11-06T10:27:54.637Z,1063.13
2022-11-06T10:28:54.688Z,1783.13
2022-11-06T10:29:54.636Z,1603.13
2022-11-06T10:30:54.641Z,973.13
2022-11-06T10:31:54.649Z,877.50
2022-11-06T10:32:54.643Z,905.63
2022-11-06T10:33:54.640Z,933.75
2022-11-06T10:34:54.643Z,973.13
2022-11-06T10:35:54.649Z,1040.63
2022-11-06T10:36:54.643Z,1108.13
2022-11-06T10:37:54.757Z,1496.25
2022-11-06T10:38:54.656Z,2047.50
2022-11-06T10:39:54.652Z,2334.38
2022-11-06T10:40:54.661Z,2435.63
2022-11-06T10:41:54.680Z,2559.38
2022-11-06T10:42:54.682Z,2503.13
2022-11-06T10:43:54.742Z,2649.38
2022-11-06T10:44:54.695Z,2694.38
2022-11-06T10:45:54.675Z,2705.63
2022-11-06T10:46:54.673Z,2756.25
2022-11-06T10:47:54.707Z,2694.38
2022-11-06T10:48:54.711Z,2728.13
2022-11-06T10:49:54.685Z,2778.75
2022-11-06T10:50:54.703Z,2795.63
2022-11-06T10:51:54.669Z,2778.75
2022-11-06T10:52:54.696Z,2700.00
2022-11-06T10:53:54.812Z,2660.63
2022-11-06T10:54:54.679Z,2587.50
2022-11-06T10:55:54.686Z,2756.25
2022-11-06T10:56:54.688Z,2829.38
2022-11-06T10:57:54.695Z,2857.50
2022-11-06T10:58:54.690Z,2728.13
2022-11-06T10:59:54.709Z,2739.38
2022-11-06T11:00:54.747Z,2728.13
2022-11-06T11:01:54.882Z,2773.13
2022-11-06T11:02:54.727Z,1586.25
2022-11-06T11:03:54.725Z,2851.88
2022-11-06T11:04:58.006Z,2739.38
2022-11-06T11:05:54.732Z,2778.75
2022-11-06T11:06:54.735Z,2767.50
2022-11-06T11:07:54.745Z,2767.50
2022-11-06T11:08:54.784Z,2806.88
2022-11-06T11:09:54.777Z,2790.00
2022-11-06T11:11:04.523Z,2761.88
2022-11-06T11:11:54.770Z,2756.25
2022-11-06T11:12:54.773Z,2733.75
2022-11-06T11:13:54.782Z,2812.50
2022-11-06T11:14:54.791Z,2778.75
2022-11-06T11:15:54.795Z,2812.50
2022-11-06T11:16:54.811Z,2902.50
2022-11-06T11:17:54.810Z,2925.00
2022-11-06T11:18:54.937Z,2936.25
2022-11-06T11:19:54.832Z,2851.88
2022-11-06T11:20:54.835Z,2739.38
2022-11-06T11:21:54.841Z,2638.13
2022-11-06T11:22:54.932Z,2660.63
2022-11-06T11:23:54.867Z,2784.38
2022-11-06T11:24:54.869Z,2846.25
2022-11-06T11:25:54.902Z,2767.50
2022-11-06T11:26:54.885Z,2722.50
2022-11-06T11:27:54.897Z,2688.75
2022-11-06T11:28:55.039Z,2705.63
2022-11-06T11:29:54.912Z,2705.63
2022-11-06T11:30:54.923Z,2553.75
2022-11-06T11:31:54.937Z,2598.75
2022-11-06T11:32:55.042Z,2593.13
2022-11-06T11:33:54.953Z,2593.13
2022-11-06T11:34:56.926Z,2638.13
2022-11-06T11:35:54.974Z,2683.13
2022-11-06T11:36:54.979Z,2739.38
2022-11-06T11:37:54.991Z,2756.25
2022-11-06T11:38:55.037Z,2767.50
2022-11-06T11:39:55.012Z,2722.50
2022-11-06T11:40:55.020Z,2671.88
2022-11-06T11:41:55.055Z,2587.50
2022-11-06T11:42:55.042Z,2593.13
2022-11-06T11:43:55.053Z,2604.38
2022-11-06T11:44:55.064Z,2604.38
2022-11-06T11:45:55.074Z,2621.25
2022-11-06T11:46:55.086Z,2553.75
2022-11-06T11:47:55.101Z,2548.13
2022-11-06T11:48:55.152Z,2548.13
2022-11-06T11:49:55.112Z,2508.75
2022-11-06T11:50:55.125Z,2430.00
2022-11-06T11:51:55.140Z,2452.50
2022-11-06T11:52:55.145Z,2311.88
2022-11-06T11:53:55.155Z,2328.75
2022-11-06T11:54:55.169Z,2092.50
2022-11-06T11:55:55.180Z,1710.00
2022-11-06T11:57:04.728Z,1170.00
2022-11-06T11:57:55.231Z,810.00
2022-11-06T11:58:55.214Z,641.25
2022-11-06T11:59:55.233Z,562.50
2022-11-06T12:00:55.238Z,489.38
2022-11-06T12:01:55.391Z,427.50
2022-11-06T12:02:55.314Z,382.50
2022-11-06T12:03:55.261Z,365.63
2022-11-06T12:04:55.267Z,348.75
2022-11-06T12:05:55.301Z,337.50
2022-11-06T12:06:55.283Z,315.00
2022-11-06T12:07:55.294Z,309.38
2022-11-06T12:08:55.302Z,298.13
2022-11-06T12:09:55.314Z,298.13
2022-11-06T12:10:55.316Z,298.13
2022-11-06T12:11:55.321Z,298.13
2022-11-06T12:12:55.326Z,292.50
2022-11-06T12:13:55.440Z,298.13
2022-11-06T12:14:55.332Z,286.88
2022-11-06T12:15:55.342Z,281.25
2022-11-06T12:16:55.348Z,281.25
2022-11-06T12:17:55.359Z,281.25
2022-11-06T12:18:58.843Z,281.25
2022-11-06T12:19:55.367Z,275.63
2022-11-06T12:20:55.370Z,270.00
2022-11-06T12:21:55.376Z,264.38
2022-11-06T12:22:55.382Z,264.38
2022-11-06T12:23:55.382Z,258.75
2022-11-06T12:24:55.385Z,258.75
2022-11-06T12:25:55.387Z,258.75
2022-11-06T12:26:55.392Z,253.13
2022-11-06T12:27:55.398Z,253.13
2022-11-06T12:28:58.283Z,253.13
2022-11-06T12:29:55.423Z,247.50
2022-11-06T12:30:55.407Z,247.50
2022-11-06T12:31:55.408Z,241.88
2022-11-06T12:32:55.404Z,241.88
2022-11-06T12:34:16.009Z,241.88
2022-11-06T12:34:55.412Z,236.25
2022-11-06T12:35:55.414Z,236.25
2022-11-06T12:36:55.420Z,230.63
2022-11-06T12:37:55.417Z,230.63
2022-11-06T12:38:55.422Z,225.00
2022-11-06T12:39:55.426Z,225.00
2022-11-06T12:40:55.423Z,225.00
2022-11-06T12:41:55.424Z,219.38
2022-11-06T12:42:55.429Z,219.38
2022-11-06T12:43:55.430Z,213.75
2022-11-06T12:44:55.428Z,213.75
2022-11-06T12:45:55.511Z,213.75
2022-11-06T12:46:55.432Z,213.75
2022-11-06T12:47:55.438Z,213.75
2022-11-06T12:48:55.440Z,208.13
2022-11-06T12:49:55.445Z,208.13
2022-11-06T12:50:55.441Z,208.13